Time;durP1;ratioP1;P1;durP2;ratioP2;P2;SDS_P1;SDS_P2;PMS_P1;PMS_P2;Temp;Humidity;BMP_temperature;BMP_pressure;BME280_temperature;BME280_humidity;BME280_pressure;Samples;Min_cycle;Max_cycle;Signal;HPM_P1;HPM_P2
2024/02/09 18:25:15;;;;;;;3.10;1.50;;;12.90;99.90;;;;;;4908742;29;20297;-75
2024/02/09 18:27:42;;;;;;;5.03;1.40;;;12.90;99.90;;;;;;4898486;29;20610;-75
2024/02/09 18:30:11;;;;;;;3.33;1.50;;;12.80;99.90;;;;;;4915566;29;20229;-75
2024/02/09 18:32:37;;;;;;;7.90;1.70;;;12.80;99.90;;;;;;4917629;29;20209;-75
2024/02/09 18:35:06;;;;;;;9.43;1.73;;;12.80;99.90;;;;;;4904440;29;20210;-75
2024/02/09 18:37:32;;;;;;;3.07;1.53;;;12.70;99.90;;;;;;4917209;29;20213;-75
2024/02/09 18:39:59;;;;;;;5.57;1.67;;;12.70;99.90;;;;;;4905107;29;20232;-74
2024/02/09 18:42:30;;;;;;;5.10;1.20;;;12.70;99.90;;;;;;4916682;29;20233;-75
2024/02/09 18:44:57;;;;;;;5.00;1.73;;;12.70;99.90;;;;;;4909174;29;20206;-75
2024/02/09 18:47:25;;;;;;;4.37;1.40;;;12.60;99.90;;;;;;4916758;29;20210;-75
2024/02/09 18:49:52;;;;;;;4.93;1.57;;;12.60;99.90;;;;;;4916756;29;20323;-75
2024/02/09 18:52:19;;;;;;;2.93;1.53;;;12.60;99.90;;;;;;4909682;29;20209;-76
2024/02/09 18:54:46;;;;;;;5.10;1.40;;;12.60;99.90;;;;;;4905969;29;20206;-75
2024/02/09 18:57:15;;;;;;;2.67;1.30;;;12.60;99.90;;;;;;4916483;29;20205;-75
2024/02/09 18:59:43;;;;;;;6.20;1.60;;;12.60;99.90;;;;;;4916210;29;20233;-75
2024/02/09 19:02:10;;;;;;;5.57;1.47;;;12.50;99.90;;;;;;4916526;29;20300;-75
2024/02/09 19:04:37;;;;;;;4.53;1.13;;;12.50;99.90;;;;;;4916280;29;20213;-76
2024/02/09 19:07:05;;;;;;;4.10;1.33;;;12.50;99.90;;;;;;4916609;29;20300;-75
2024/02/09 19:09:32;;;;;;;3.77;1.97;;;12.50;99.90;;;;;;4916143;29;20597;-76
2024/02/09 19:11:58;;;;;;;4.63;1.47;;;12.50;99.90;;;;;;4916526;29;20212;-75
2024/02/09 19:14:26;;;;;;;5.37;1.20;;;12.50;99.90;;;;;;4916218;29;20629;-75
2024/02/09 19:16:54;;;;;;;3.43;1.07;;;12.50;99.90;;;;;;4916338;29;20202;-75
2024/02/09 19:19:21;;;;;;;2.40;1.20;;;12.50;99.90;;;;;;4916442;29;20221;-75
2024/02/09 19:21:49;;;;;;;4.63;1.93;;;12.40;99.90;;;;;;4915824;29;20269;-75
2024/02/09 19:24:16;;;;;;;3.53;1.57;;;12.40;99.90;;;;;;4909792;29;20236;-75
2024/02/09 19:26:43;;;;;;;3.87;1.30;;;12.40;99.90;;;;;;4916286;29;20305;-75
2024/02/09 19:29:09;;;;;;;5.93;1.43;;;12.30;99.90;;;;;;4916363;29;20323;-75
2024/02/09 19:31:37;;;;;;;5.23;1.33;;;12.40;99.90;;;;;;4909882;29;20312;-76
2024/02/09 19:34:07;;;;;;;3.03;1.50;;;12.40;99.90;;;;;;4909496;29;20751;-75
2024/02/09 19:36:34;;;;;;;2.93;1.13;;;12.30;99.90;;;;;;4916151;29;20297;-75
2024/02/09 19:39:03;;;;;;;1.97;1.10;;;12.30;99.90;;;;;;4916028;29;20300;-76
2024/02/09 19:41:30;;;;;;;5.20;2.23;;;12.20;99.90;;;;;;4915880;29;20229;-75
2024/02/09 19:43:57;;;;;;;3.93;1.87;;;12.10;99.90;;;;;;4916243;29;20237;-76
2024/02/09 19:46:24;;;;;;;3.17;1.13;;;12.10;99.90;;;;;;4915725;29;20208;-76
2024/02/09 19:48:51;;;;;;;4.60;1.27;;;12.10;99.90;;;;;;4916266;29;20241;-76
2024/02/09 19:51:20;;;;;;;5.17;1.67;;;12.10;99.90;;;;;;4915664;29;20232;-76
2024/02/09 19:53:47;;;;;;;3.07;1.30;;;12.20;99.90;;;;;;4915949;29;20222;-76
2024/02/09 19:56:14;;;;;;;3.67;1.90;;;12.20;99.90;;;;;;4915718;29;20572;-77
2024/02/09 19:58:42;;;;;;;2.83;1.47;;;12.20;99.90;;;;;;4916063;29;20229;-76
2024/02/09 20:01:10;;;;;;;4.70;1.20;;;12.20;99.90;;;;;;4915535;29;20720;-76
2024/02/09 20:03:38;;;;;;;3.67;1.47;;;12.20;99.90;;;;;;4917809;29;20273;-76
2024/02/09 20:06:05;;;;;;;4.73;1.33;;;12.20;99.90;;;;;;4919677;29;20213;-76
2024/02/09 20:08:33;;;;;;;5.63;1.40;;;12.20;99.90;;;;;;4919556;29;20236;-76
2024/02/09 20:11:00;;;;;;;6.73;1.77;;;12.20;99.90;;;;;;4919245;29;20233;-76
2024/02/09 20:13:27;;;;;;;3.80;1.70;;;12.20;99.90;;;;;;4919565;29;20273;-76
2024/02/09 20:15:58;;;;;;;2.57;1.13;;;12.20;99.90;;;;;;4919662;29;20210;-76
2024/02/09 20:18:25;;;;;;;3.63;1.20;;;12.20;99.90;;;;;;4919717;29;20220;-75
2024/02/09 20:20:52;;;;;;;3.43;1.37;;;12.20;99.90;;;;;;4919547;29;20659;-76
2024/02/09 20:23:19;;;;;;;5.00;1.63;;;12.30;99.90;;;;;;4919674;29;20386;-77
2024/02/09 20:25:47;;;;;;;6.17;1.87;;;12.40;99.90;;;;;;4918834;29;20241;-76
2024/02/09 20:28:14;;;;;;;5.33;1.30;;;12.50;99.90;;;;;;4919240;29;20256;-76
2024/02/09 20:30:41;;;;;;;4.83;1.70;;;12.50;99.90;;;;;;4919165;29;20320;-76
2024/02/09 20:33:10;;;;;;;3.70;1.43;;;12.50;99.90;;;;;;4919508;29;20217;-76
2024/02/09 20:35:39;;;;;;;4.33;1.57;;;12.50;99.90;;;;;;4918967;29;20230;-76
2024/02/09 20:38:06;;;;;;;7.37;1.90;;;12.50;99.90;;;;;;4918969;29;20261;-76
2024/02/09 20:40:33;;;;;;;5.07;1.57;;;12.50;99.90;;;;;;4918949;29;20557;-77
2024/02/09 20:43:02;;;;;;;3.30;1.10;;;12.50;99.90;;;;;;4916753;29;20225;-76
2024/02/09 20:45:29;;;;;;;3.43;1.13;;;12.40;99.90;;;;;;4909233;29;20731;-76
2024/02/09 20:47:57;;;;;;;3.50;1.30;;;12.30;99.90;;;;;;4918862;29;20379;-76
2024/02/09 20:50:28;;;;;;;3.53;1.10;;;12.20;99.90;;;;;;4918958;29;20393;-76
2024/02/09 20:53:01;;;;;;;3.13;1.00;;;12.20;99.90;;;;;;4918528;29;20327;-75
2024/02/09 20:55:32;;;;;;;4.03;1.10;;;12.20;99.90;;;;;;4919171;29;20241;-76
2024/02/09 20:57:59;;;;;;;4.20;1.57;;;12.10;99.90;;;;;;4918992;29;20210;-75
2024/02/09 21:00:28;;;;;;;2.33;0.93;;;12.10;99.90;;;;;;4919058;29;20241;-76
2024/02/09 21:02:55;;;;;;;2.07;0.90;;;12.00;99.90;;;;;;4918759;29;20210;-76
2024/02/09 21:05:22;;;;;;;1.60;0.90;;;12.10;99.90;;;;;;4918888;29;20217;-76
2024/02/09 21:07:49;;;;;;;4.13;1.07;;;12.10;99.90;;;;;;4918808;29;20244;-76
2024/02/09 21:10:17;;;;;;;2.17;1.00;;;12.20;99.90;;;;;;4918790;29;20237;-76
2024/02/09 21:12:46;;;;;;;2.27;1.00;;;12.20;99.90;;;;;;4918805;29;20208;-76
2024/02/09 21:15:13;;;;;;;4.73;0.83;;;12.20;99.90;;;;;;4917416;29;20214;-76
2024/02/09 21:17:43;;;;;;;1.73;0.60;;;12.30;99.90;;;;;;4905995;29;20201;-76
2024/02/09 21:20:12;;;;;;;2.07;0.80;;;12.20;99.90;;;;;;4913138;29;20256;-76
2024/02/09 21:22:39;;;;;;;2.87;0.80;;;12.20;99.90;;;;;;4918739;29;20208;-76
2024/02/09 21:25:07;;;;;;;1.83;0.80;;;12.20;99.90;;;;;;4918018;29;20580;-76
2024/02/09 21:27:33;;;;;;;2.27;0.73;;;12.20;99.90;;;;;;4918379;29;20217;-76
2024/02/09 21:30:04;;;;;;;5.70;0.97;;;12.10;99.90;;;;;;4918189;29;20237;-76
2024/02/09 21:32:32;;;;;;;1.37;0.60;;;12.10;99.90;;;;;;4918201;29;20220;-76
2024/02/09 21:35:02;;;;;;;2.17;0.87;;;12.10;99.90;;;;;;4918206;29;20205;-76
2024/02/09 21:37:29;;;;;;;0.70;0.60;;;12.10;99.90;;;;;;4918353;29;20309;-77
2024/02/09 21:39:57;;;;;;;1.33;0.77;;;12.10;99.90;;;;;;4917857;29;20256;-76
2024/02/09 21:42:26;;;;;;;2.27;0.70;;;12.10;99.90;;;;;;4918357;29;20237;-76
2024/02/09 21:44:54;;;;;;;2.27;0.57;;;12.10;99.90;;;;;;4917918;29;20209;-76
2024/02/09 21:47:21;;;;;;;3.60;1.80;;;12.10;99.90;;;;;;4918050;29;20217;-76
2024/02/09 21:49:47;;;;;;;2.23;0.67;;;12.20;99.90;;;;;;4917722;29;20252;-76
2024/02/09 21:52:17;;;;;;;2.80;0.80;;;12.20;99.90;;;;;;4910379;29;20301;-76
2024/02/09 21:54:46;;;;;;;4.70;1.13;;;12.30;99.90;;;;;;4916658;29;20209;-76
2024/02/09 21:57:13;;;;;;;2.57;0.70;;;12.20;99.90;;;;;;4917675;29;20213;-76
2024/02/09 21:59:39;;;;;;;3.13;1.20;;;12.20;99.90;;;;;;4917300;29;20293;-76
2024/02/09 22:02:07;;;;;;;2.53;0.93;;;12.20;99.90;;;;;;4917765;29;20248;-77
2024/02/09 22:04:33;;;;;;;2.80;0.70;;;12.20;99.90;;;;;;4917625;29;20245;-77
2024/02/09 22:07:01;;;;;;;1.70;0.70;;;12.20;99.90;;;;;;4917805;29;20234;-76
2024/02/09 22:09:29;;;;;;;2.17;0.90;;;12.10;99.90;;;;;;4917224;29;20277;-77
